sensor_id;sensor_type;location;lat;lon;timestamp;pressure;altitude;pressure_sealevel;temperature;humidity
68628;BME280;55611;48.602;9.490;2023-11-22T00:00:11;97120;;;10.5;61.5
68628;BME280;55611;48.602;9.490;2023-11-22T00:02:41;97120;;;10.5;61.5
68628;BME280;55611;48.602;9.490;2023-11-22T00:05:12;97120;;;10.6;61.5
68628;BME280;55611;48.602;9.490;2023-11-22T00:07:42;97120;;;10.5;61.5
68628;BME280;55611;48.602;9.490;2023-11-22T00:10:13;97120;;;10.6;61.5
68628;BME280;55611;48.602;9.490;2023-11-22T00:12:43;97120;;;10.6;61.5
68628;BME280;55611;48.602;9.490;2023-11-22T00:15:14;97110;;;10.5;61.5
68628;BME280;55611;48.602;9.490;2023-11-22T00:17:45;97120;;;10.5;61.5
68628;BME280;55611;48.602;9.490;2023-11-22T00:20:15;97120;;;10.5;61.5
68628;BME280;55611;48.602;9.490;2023-11-22T00:22:45;97110;;;10.5;61.5
68628;BME280;55611;48.602;9.490;2023-11-22T00:25:18;97110;;;10.5;61.5
68628;BME280;55611;48.602;9.490;2023-11-22T00:27:46;97120;;;10.6;61.5
68628;BME280;55611;48.602;9.490;2023-11-22T00:30:17;97120;;;10.6;61.5
68628;BME280;55611;48.602;9.490;2023-11-22T00:32:48;97120;;;10.6;61.5
68628;BME280;55611;48.602;9.490;2023-11-22T00:35:18;97110;;;10.6;61.5
68628;BME280;55611;48.602;9.490;2023-11-22T00:37:49;97120;;;10.5;61.5
68628;BME280;55611;48.602;9.490;2023-11-22T00:40:19;97120;;;10.5;61.5
68628;BME280;55611;48.602;9.490;2023-11-22T00:42:50;97120;;;10.5;61.5
68628;BME280;55611;48.602;9.490;2023-11-22T00:45:20;97120;;;10.6;61.5
68628;BME280;55611;48.602;9.490;2023-11-22T00:47:51;97110;;;10.6;61.5
68628;BME280;55611;48.602;9.490;2023-11-22T00:50:21;97120;;;10.5;61.5
68628;BME280;55611;48.602;9.490;2023-11-22T00:52:52;97130;;;10.4;61.5
68628;BME280;55611;48.602;9.490;2023-11-22T00:55:22;97150;;;10.4;61.5
68628;BME280;55611;48.602;9.490;2023-11-22T00:57:53;97140;;;10.1;62
68628;BME280;55611;48.602;9.490;2023-11-22T01:00:23;97150;;;9.9;62
68628;BME280;55611;48.602;9.490;2023-11-22T01:02:54;97150;;;9.9;62
68628;BME280;55611;48.602;9.490;2023-11-22T01:05:24;97150;;;9.8;62
68628;BME280;55611;48.602;9.490;2023-11-22T01:07:55;97150;;;9.7;62
68628;BME280;55611;48.602;9.490;2023-11-22T01:10:25;97150;;;9.8;61.5
68628;BME280;55611;48.602;9.490;2023-11-22T01:12:56;97160;;;9.9;61.5
68628;BME280;55611;48.602;9.490;2023-11-22T01:15:26;97150;;;9.9;61.5
68628;BME280;55611;48.602;9.490;2023-11-22T01:17:57;97160;;;9.8;61.5
68628;BME280;55611;48.602;9.490;2023-11-22T01:20:27;97170;;;9.7;61.5
68628;BME280;55611;48.602;9.490;2023-11-22T01:22:58;97160;;;9.6;62
68628;BME280;55611;48.602;9.490;2023-11-22T01:25:28;97170;;;9.6;61.5
68628;BME280;55611;48.602;9.490;2023-11-22T01:27:59;97170;;;9.6;61.5
68628;BME280;55611;48.602;9.490;2023-11-22T01:30:29;97180;;;9.6;61.5
68628;BME280;55611;48.602;9.490;2023-11-22T01:33:00;97180;;;9.5;61.5
68628;BME280;55611;48.602;9.490;2023-11-22T01:35:30;97180;;;9.5;61.5
68628;BME280;55611;48.602;9.490;2023-11-22T01:38:01;97180;;;9.4;61.5
68628;BME280;55611;48.602;9.490;2023-11-22T01:40:32;97180;;;9.5;61.5
68628;BME280;55611;48.602;9.490;2023-11-22T01:43:02;97180;;;9.4;61.5
68628;BME280;55611;48.602;9.490;2023-11-22T01:45:32;97190;;;9.4;61.5
68628;BME280;55611;48.602;9.490;2023-11-22T01:48:03;97200;;;9.3;61.5
68628;BME280;55611;48.602;9.490;2023-11-22T01:50:33;97210;;;9;61.5
68628;BME280;55611;48.602;9.490;2023-11-22T01:53:04;97220;;;8.9;61.5
68628;BME280;55611;48.602;9.490;2023-11-22T01:55:35;97230;;;8.7;61.5
68628;BME280;55611;48.602;9.490;2023-11-22T01:58:06;97230;;;8.5;62
68628;BME280;55611;48.602;9.490;2023-11-22T02:00:36;97230;;;8.5;62
68628;BME280;55611;48.602;9.490;2023-11-22T02:05:39;97240;;;8.7;61.5
68628;BME280;55611;48.602;9.490;2023-11-22T02:08:09;97240;;;8.8;61.5
68628;BME280;55611;48.602;9.490;2023-11-22T02:10:38;97240;;;8.8;61.5
68628;BME280;55611;48.602;9.490;2023-11-22T02:13:08;97250;;;8.9;61.5
68628;BME280;55611;48.602;9.490;2023-11-22T02:15:39;97250;;;9;61
68628;BME280;55611;48.602;9.490;2023-11-22T02:18:09;97250;;;8.9;61
68628;BME280;55611;48.602;9.490;2023-11-22T02:20:40;97250;;;8.9;61
68628;BME280;55611;48.602;9.490;2023-11-22T02:23:10;97250;;;8.8;61
68628;BME280;55611;48.602;9.490;2023-11-22T02:25:41;97260;;;8.8;61
68628;BME280;55611;48.602;9.490;2023-11-22T02:28:11;97260;;;8.8;61
68628;BME280;55611;48.602;9.490;2023-11-22T02:30:42;97260;;;8.9;61
68628;BME280;55611;48.602;9.490;2023-11-22T02:33:12;97260;;;8.9;61
68628;BME280;55611;48.602;9.490;2023-11-22T02:35:43;97260;;;8.9;61
68628;BME280;55611;48.602;9.490;2023-11-22T02:38:13;97270;;;8.9;61
68628;BME280;55611;48.602;9.490;2023-11-22T02:40:44;97280;;;8.9;61
68628;BME280;55611;48.602;9.490;2023-11-22T02:43:14;97280;;;8.7;61
68628;BME280;55611;48.602;9.490;2023-11-22T02:45:45;97280;;;8.4;61.5
68628;BME280;55611;48.602;9.490;2023-11-22T02:48:15;97290;;;8.3;61.5
68628;BME280;55611;48.602;9.490;2023-11-22T02:50:46;97290;;;8.1;62
68628;BME280;55611;48.602;9.490;2023-11-22T02:53:16;97290;;;8.2;62
68628;BME280;55611;48.602;9.490;2023-11-22T02:55:47;97290;;;8.1;62
68628;BME280;55611;48.602;9.490;2023-11-22T02:58:17;97300;;;8.2;62
68628;BME280;55611;48.602;9.490;2023-11-22T03:00:48;97300;;;8.2;61.5
68628;BME280;55611;48.602;9.490;2023-11-22T03:03:18;97290;;;8.3;61.5
68628;BME280;55611;48.602;9.490;2023-11-22T03:05:49;97300;;;8.4;61.5
68628;BME280;55611;48.602;9.490;2023-11-22T03:08:19;97300;;;8.3;61.5
68628;BME280;55611;48.602;9.490;2023-11-22T03:10:50;97300;;;8.2;61
68628;BME280;55611;48.602;9.490;2023-11-22T03:13:20;97310;;;8;61.5
68628;BME280;55611;48.602;9.490;2023-11-22T03:15:51;97310;;;7.9;61.5
68628;BME280;55611;48.602;9.490;2023-11-22T03:18:22;97320;;;7.7;61.5
68628;BME280;55611;48.602;9.490;2023-11-22T03:20:52;97320;;;7.7;61.5
68628;BME280;55611;48.602;9.490;2023-11-22T03:23:23;97320;;;7.7;61.5
68628;BME280;55611;48.602;9.490;2023-11-22T03:25:53;97330;;;7.8;61.5
68628;BME280;55611;48.602;9.490;2023-11-22T03:28:24;97330;;;7.7;61.5
68628;BME280;55611;48.602;9.490;2023-11-22T03:30:54;97330;;;7.7;61.5
68628;BME280;55611;48.602;9.490;2023-11-22T03:33:25;97330;;;7.4;61.5
68628;BME280;55611;48.602;9.490;2023-11-22T03:35:55;97330;;;7.2;61.5
68628;BME280;55611;48.602;9.490;2023-11-22T03:38:26;97340;;;7.2;62
68628;BME280;55611;48.602;9.490;2023-11-22T03:40:56;97340;;;7.1;62
68628;BME280;55611;48.602;9.490;2023-11-22T03:43:27;97340;;;7.1;62
68628;BME280;55611;48.602;9.490;2023-11-22T03:45:57;97350;;;7.1;62
68628;BME280;55611;48.602;9.490;2023-11-22T03:48:28;97350;;;7;62
68628;BME280;55611;48.602;9.490;2023-11-22T03:50:58;97360;;;7;62
68628;BME280;55611;48.602;9.490;2023-11-22T03:53:29;97370;;;7.2;61.5
68628;BME280;55611;48.602;9.490;2023-11-22T03:55:59;97370;;;7.3;61.5
68628;BME280;55611;48.602;9.490;2023-11-22T03:58:30;97380;;;7.3;61.5
68628;BME280;55611;48.602;9.490;2023-11-22T04:01:00;97390;;;7.3;61.5
68628;BME280;55611;48.602;9.490;2023-11-22T04:03:31;97390;;;7.3;61.5
68628;BME280;55611;48.602;9.490;2023-11-22T04:06:01;97400;;;7.1;61.5
68628;BME280;55611;48.602;9.490;2023-11-22T04:08:32;97410;;;6.9;61.5
68628;BME280;55611;48.602;9.490;2023-11-22T04:11:03;97410;;;6.9;62
68628;BME280;55611;48.602;9.490;2023-11-22T04:13:33;97410;;;6.9;62
68628;BME280;55611;48.602;9.490;2023-11-22T04:16:04;97420;;;7;62
68628;BME280;55611;48.602;9.490;2023-11-22T04:18:34;97420;;;6.9;62
68628;BME280;55611;48.602;9.490;2023-11-22T04:21:04;97430;;;6.7;62
68628;BME280;55611;48.602;9.490;2023-11-22T04:23:35;97440;;;6.5;62
68628;BME280;55611;48.602;9.490;2023-11-22T04:26:05;97440;;;6.5;62
68628;BME280;55611;48.602;9.490;2023-11-22T04:28:36;97440;;;6.6;61.5
68628;BME280;55611;48.602;9.490;2023-11-22T04:31:06;97440;;;6.7;61.5
68628;BME280;55611;48.602;9.490;2023-11-22T04:33:37;97450;;;6.6;61.5
68628;BME280;55611;48.602;9.490;2023-11-22T04:36:07;97450;;;6.5;61.5
68628;BME280;55611;48.602;9.490;2023-11-22T04:38:38;97450;;;6.5;61.5
68628;BME280;55611;48.602;9.490;2023-11-22T04:41:09;97460;;;6.4;61.5
68628;BME280;55611;48.602;9.490;2023-11-22T04:43:39;97470;;;6.4;61.5
68628;BME280;55611;48.602;9.490;2023-11-22T04:46:10;97470;;;6.3;61.5
68628;BME280;55611;48.602;9.490;2023-11-22T04:48:40;97460;;;6.3;61.5
68628;BME280;55611;48.602;9.490;2023-11-22T04:51:11;97470;;;6.4;61.5
68628;BME280;55611;48.602;9.490;2023-11-22T04:53:41;97470;;;6.5;61.5
68628;BME280;55611;48.602;9.490;2023-11-22T04:56:12;97470;;;6.4;61.5
68628;BME280;55611;48.602;9.490;2023-11-22T04:58:42;97470;;;6.4;61.5
68628;BME280;55611;48.602;9.490;2023-11-22T05:01:13;97470;;;6.6;61.5
68628;BME280;55611;48.602;9.490;2023-11-22T05:03:43;97480;;;6.4;61.5
68628;BME280;55611;48.602;9.490;2023-11-22T05:06:14;97480;;;6.3;61.5
68628;BME280;55611;48.602;9.490;2023-11-22T05:08:44;97480;;;6.3;61.5
68628;BME280;55611;48.602;9.490;2023-11-22T05:11:15;97490;;;6.3;61.5
68628;BME280;55611;48.602;9.490;2023-11-22T05:13:45;97490;;;6.3;61.5
68628;BME280;55611;48.602;9.490;2023-11-22T05:16:17;97500;;;6.5;61.5
68628;BME280;55611;48.602;9.490;2023-11-22T05:18:46;97490;;;6.4;61.5
68628;BME280;55611;48.602;9.490;2023-11-22T05:21:17;97500;;;6.3;61.5
68628;BME280;55611;48.602;9.490;2023-11-22T05:23:47;97490;;;6.3;61.5
68628;BME280;55611;48.602;9.490;2023-11-22T05:26:18;97500;;;6.3;61.5
68628;BME280;55611;48.602;9.490;2023-11-22T05:28:48;97500;;;6.4;61.5
68628;BME280;55611;48.602;9.490;2023-11-22T05:31:19;97510;;;6.5;61.5
68628;BME280;55611;48.602;9.490;2023-11-22T05:33:49;97510;;;6.4;61.5
68628;BME280;55611;48.602;9.490;2023-11-22T05:36:20;97510;;;6.2;61.5
68628;BME280;55611;48.602;9.490;2023-11-22T05:38:50;97520;;;6.3;61.5
68628;BME280;55611;48.602;9.490;2023-11-22T05:41:21;97520;;;6.3;61.5
68628;BME280;55611;48.602;9.490;2023-11-22T05:43:52;97510;;;6.2;62
68628;BME280;55611;48.602;9.490;2023-11-22T05:46:22;97520;;;6.2;61.5
68628;BME280;55611;48.602;9.490;2023-11-22T05:48:52;97520;;;6.3;61.5
68628;BME280;55611;48.602;9.490;2023-11-22T05:51:23;97520;;;6.2;61.5
68628;BME280;55611;48.602;9.490;2023-11-22T05:53:53;97520;;;6.3;61.5
68628;BME280;55611;48.602;9.490;2023-11-22T05:56:24;97520;;;6.4;61.5
68628;BME280;55611;48.602;9.490;2023-11-22T05:58:54;97520;;;6.3;61.5
68628;BME280;55611;48.602;9.490;2023-11-22T06:01:25;97530;;;6.3;61.5
68628;BME280;55611;48.602;9.490;2023-11-22T06:03:55;97540;;;6.3;61.5
68628;BME280;55611;48.602;9.490;2023-11-22T06:06:26;97550;;;6.4;61.5
68628;BME280;55611;48.602;9.490;2023-11-22T06:08:57;97540;;;6.3;61.5
68628;BME280;55611;48.602;9.490;2023-11-22T06:11:27;97540;;;6.4;61.5
68628;BME280;55611;48.602;9.490;2023-11-22T06:13:58;97550;;;6.3;61.5
68628;BME280;55611;48.602;9.490;2023-11-22T06:16:28;97560;;;6.3;61.5
68628;BME280;55611;48.602;9.490;2023-11-22T06:18:59;97570;;;6.4;61.5
68628;BME280;55611;48.602;9.490;2023-11-22T06:21:29;97570;;;6.4;61.5
68628;BME280;55611;48.602;9.490;2023-11-22T06:24:00;97570;;;6.4;61.5
68628;BME280;55611;48.602;9.490;2023-11-22T06:26:30;97570;;;6.4;61.5
68628;BME280;55611;48.602;9.490;2023-11-22T06:29:01;97580;;;6.5;61.5
68628;BME280;55611;48.602;9.490;2023-11-22T06:31:31;97590;;;6.3;61.5
68628;BME280;55611;48.602;9.490;2023-11-22T06:34:02;97600;;;6.3;61.5
68628;BME280;55611;48.602;9.490;2023-11-22T06:36:32;97590;;;6.3;61.5
68628;BME280;55611;48.602;9.490;2023-11-22T06:39:03;97600;;;6.3;61.5
68628;BME280;55611;48.602;9.490;2023-11-22T06:41:33;97600;;;6.2;61.5
68628;BME280;55611;48.602;9.490;2023-11-22T06:44:04;97610;;;6.3;61.5
68628;BME280;55611;48.602;9.490;2023-11-22T06:46:34;97620;;;6.3;61
68628;BME280;55611;48.602;9.490;2023-11-22T06:49:05;97620;;;6.2;61.5
68628;BME280;55611;48.602;9.490;2023-11-22T06:51:35;97620;;;6.4;61.5
68628;BME280;55611;48.602;9.490;2023-11-22T06:54:06;97620;;;6.4;61.5
68628;BME280;55611;48.602;9.490;2023-11-22T06:56:36;97630;;;6.5;61
68628;BME280;55611;48.602;9.490;2023-11-22T06:59:07;97630;;;6.5;61
68628;BME280;55611;48.602;9.490;2023-11-22T07:01:37;97630;;;6.5;61
68628;BME280;55611;48.602;9.490;2023-11-22T07:06:38;97630;;;6.5;61
68628;BME280;55611;48.602;9.490;2023-11-22T07:09:09;97630;;;6.3;61
68628;BME280;55611;48.602;9.490;2023-11-22T07:11:39;97630;;;6.3;61
68628;BME280;55611;48.602;9.490;2023-11-22T07:14:10;97630;;;6.3;61
68628;BME280;55611;48.602;9.490;2023-11-22T07:16:40;97640;;;6.3;61
68628;BME280;55611;48.602;9.490;2023-11-22T07:19:11;97640;;;6.3;61
68628;BME280;55611;48.602;9.490;2023-11-22T07:21:41;97640;;;6.3;61
68628;BME280;55611;48.602;9.490;2023-11-22T07:24:12;97640;;;6.4;61
68628;BME280;55611;48.602;9.490;2023-11-22T07:26:42;97640;;;6.4;61
68628;BME280;55611;48.602;9.490;2023-11-22T07:29:13;97630;;;6.4;61
68628;BME280;55611;48.602;9.490;2023-11-22T07:31:44;97640;;;6.4;61
68628;BME280;55611;48.602;9.490;2023-11-22T07:34:14;97640;;;6.5;61
68628;BME280;55611;48.602;9.490;2023-11-22T07:36:45;97660;;;6.4;61
68628;BME280;55611;48.602;9.490;2023-11-22T07:39:15;97670;;;6.4;61
68628;BME280;55611;48.602;9.490;2023-11-22T07:41:46;97670;;;6.5;61
68628;BME280;55611;48.602;9.490;2023-11-22T07:44:16;97680;;;6.5;61
68628;BME280;55611;48.602;9.490;2023-11-22T07:46:47;97690;;;6.3;61.5
68628;BME280;55611;48.602;9.490;2023-11-22T07:49:19;97690;;;6.2;61.5
68628;BME280;55611;48.602;9.490;2023-11-22T07:51:48;97700;;;6.2;61.5
68628;BME280;55611;48.602;9.490;2023-11-22T07:54:18;97700;;;6.2;61.5
68628;BME280;55611;48.602;9.490;2023-11-22T07:56:49;97700;;;6.1;61.5
68628;BME280;55611;48.602;9.490;2023-11-22T07:59:19;97700;;;6.2;61.5
68628;BME280;55611;48.602;9.490;2023-11-22T08:01:50;97710;;;6.3;61.5
68628;BME280;55611;48.602;9.490;2023-11-22T08:04:20;97710;;;6.3;61.5
68628;BME280;55611;48.602;9.490;2023-11-22T08:06:51;97700;;;6.5;61.5
68628;BME280;55611;48.602;9.490;2023-11-22T08:09:21;97700;;;6.5;61.5
68628;BME280;55611;48.602;9.490;2023-11-22T08:11:52;97710;;;6.3;61.5
68628;BME280;55611;48.602;9.490;2023-11-22T08:16:53;97710;;;6.4;61.5
68628;BME280;55611;48.602;9.490;2023-11-22T08:19:23;97710;;;6.5;61.5
68628;BME280;55611;48.602;9.490;2023-11-22T08:21:54;97700;;;6.5;61.5
68628;BME280;55611;48.602;9.490;2023-11-22T08:24:24;97700;;;6.4;61.5
68628;BME280;55611;48.602;9.490;2023-11-22T08:26:55;97700;;;6.5;61.5
68628;BME280;55611;48.602;9.490;2023-11-22T08:29:25;97710;;;6.5;61.5
68628;BME280;55611;48.602;9.490;2023-11-22T08:31:56;97710;;;6.4;61.5
68628;BME280;55611;48.602;9.490;2023-11-22T08:34:26;97710;;;6.3;61.5
68628;BME280;55611;48.602;9.490;2023-11-22T08:36:57;97710;;;6.4;61.5
68628;BME280;55611;48.602;9.490;2023-11-22T08:39:27;97710;;;6.5;61.5
68628;BME280;55611;48.602;9.490;2023-11-22T08:41:58;97710;;;6.6;61.5
68628;BME280;55611;48.602;9.490;2023-11-22T08:44:28;97720;;;6.6;61.5
68628;BME280;55611;48.602;9.490;2023-11-22T08:46:59;97720;;;6.7;61.5
68628;BME280;55611;48.602;9.490;2023-11-22T08:49:29;97720;;;6.6;61.5
68628;BME280;55611;48.602;9.490;2023-11-22T08:52:00;97720;;;6.6;61.5
68628;BME280;55611;48.602;9.490;2023-11-22T08:54:30;97720;;;6.7;61.5
68628;BME280;55611;48.602;9.490;2023-11-22T08:57:01;97720;;;6.8;61
68628;BME280;55611;48.602;9.490;2023-11-22T08:59:32;97720;;;6.8;61
68628;BME280;55611;48.602;9.490;2023-11-22T09:02:02;97710;;;6.9;61
68628;BME280;55611;48.602;9.490;2023-11-22T09:04:33;97720;;;6.9;61
68628;BME280;55611;48.602;9.490;2023-11-22T09:07:03;97710;;;6.8;61
68628;BME280;55611;48.602;9.490;2023-11-22T09:09:34;97710;;;6.8;61
68628;BME280;55611;48.602;9.490;2023-11-22T09:12:04;97710;;;6.7;61.5
68628;BME280;55611;48.602;9.490;2023-11-22T09:14:35;97700;;;6.7;61.5
68628;BME280;55611;48.602;9.490;2023-11-22T09:17:05;97700;;;6.7;61.5
68628;BME280;55611;48.602;9.490;2023-11-22T09:19:36;97700;;;6.8;61.5
68628;BME280;55611;48.602;9.490;2023-11-22T09:22:06;97700;;;6.8;61.5
68628;BME280;55611;48.602;9.490;2023-11-22T09:24:37;97710;;;6.8;61.5
68628;BME280;55611;48.602;9.490;2023-11-22T09:27:07;97710;;;6.9;61.5
68628;BME280;55611;48.602;9.490;2023-11-22T09:29:38;97710;;;6.9;61.5
68628;BME280;55611;48.602;9.490;2023-11-22T09:32:08;97710;;;7;61
68628;BME280;55611;48.602;9.490;2023-11-22T09:34:39;97710;;;7;61
68628;BME280;55611;48.602;9.490;2023-11-22T09:37:09;97710;;;7;61
68628;BME280;55611;48.602;9.490;2023-11-22T09:39:40;97710;;;6.9;61.5
68628;BME280;55611;48.602;9.490;2023-11-22T09:42:10;97710;;;6.9;61.5
68628;BME280;55611;48.602;9.490;2023-11-22T09:44:41;97720;;;6.9;61.5
68628;BME280;55611;48.602;9.490;2023-11-22T09:47:11;97720;;;6.9;61.5
68628;BME280;55611;48.602;9.490;2023-11-22T09:49:42;97720;;;6.9;61.5
68628;BME280;55611;48.602;9.490;2023-11-22T09:52:12;97720;;;6.9;61.5
68628;BME280;55611;48.602;9.490;2023-11-22T09:54:43;97730;;;6.9;61.5
68628;BME280;55611;48.602;9.490;2023-11-22T09:57:13;97730;;;6.9;61.5
68628;BME280;55611;48.602;9.490;2023-11-22T09:59:44;97740;;;7;61.5
68628;BME280;55611;48.602;9.490;2023-11-22T10:02:14;97750;;;6.9;61.5
68628;BME280;55611;48.602;9.490;2023-11-22T10:04:45;97760;;;6.8;61.5
68628;BME280;55611;48.602;9.490;2023-11-22T10:07:15;97760;;;6.8;61.5
68628;BME280;55611;48.602;9.490;2023-11-22T10:09:46;97760;;;6.8;61.5
68628;BME280;55611;48.602;9.490;2023-11-22T10:12:19;97760;;;6.7;61.5
68628;BME280;55611;48.602;9.490;2023-11-22T10:14:47;97760;;;6.6;61.5
68628;BME280;55611;48.602;9.490;2023-11-22T10:17:18;97770;;;6.6;61.5
68628;BME280;55611;48.602;9.490;2023-11-22T10:19:48;97770;;;6.5;61.5
68628;BME280;55611;48.602;9.490;2023-11-22T10:22:18;97770;;;6.6;61.5
68628;BME280;55611;48.602;9.490;2023-11-22T10:24:49;97780;;;6.4;62
68628;BME280;55611;48.602;9.490;2023-11-22T10:27:20;97770;;;6.3;62
68628;BME280;55611;48.602;9.490;2023-11-22T10:29:50;97770;;;6.3;61.5
68628;BME280;55611;48.602;9.490;2023-11-22T10:32:21;97780;;;6.4;61.5
68628;BME280;55611;48.602;9.490;2023-11-22T10:34:51;97780;;;6.4;61.5
68628;BME280;55611;48.602;9.490;2023-11-22T10:37:22;97780;;;6.4;61.5
68628;BME280;55611;48.602;9.490;2023-11-22T10:39:52;97780;;;6.4;61.5
68628;BME280;55611;48.602;9.490;2023-11-22T10:42:23;97770;;;6.4;61.5
68628;BME280;55611;48.602;9.490;2023-11-22T10:44:55;97780;;;6.5;61.5
68628;BME280;55611;48.602;9.490;2023-11-22T10:47:24;97780;;;6.5;61.5
68628;BME280;55611;48.602;9.490;2023-11-22T10:49:54;97790;;;6.5;61.5
68628;BME280;55611;48.602;9.490;2023-11-22T10:52:26;97790;;;6.4;61.5
68628;BME280;55611;48.602;9.490;2023-11-22T10:54:56;97790;;;6.4;61.5
68628;BME280;55611;48.602;9.490;2023-11-22T10:57:26;97790;;;6.4;61.5
68628;BME280;55611;48.602;9.490;2023-11-22T10:59:57;97790;;;6.5;61.5
68628;BME280;55611;48.602;9.490;2023-11-22T11:02:27;97780;;;6.5;61.5
68628;BME280;55611;48.602;9.490;2023-11-22T11:04:59;97790;;;6.6;61.5
68628;BME280;55611;48.602;9.490;2023-11-22T11:07:28;97790;;;6.8;61
68628;BME280;55611;48.602;9.490;2023-11-22T11:09:58;97790;;;6.9;61
68628;BME280;55611;48.602;9.490;2023-11-22T11:12:29;97790;;;7;61
68628;BME280;55611;48.602;9.490;2023-11-22T11:14:59;97790;;;6.9;61
68628;BME280;55611;48.602;9.490;2023-11-22T11:17:30;97800;;;6.9;61
68628;BME280;55611;48.602;9.490;2023-11-22T11:20:03;97800;;;6.8;61
68628;BME280;55611;48.602;9.490;2023-11-22T11:22:32;97800;;;6.9;61
68628;BME280;55611;48.602;9.490;2023-11-22T11:25:02;97800;;;6.9;61
68628;BME280;55611;48.602;9.490;2023-11-22T11:27:33;97790;;;7;61
68628;BME280;55611;48.602;9.490;2023-11-22T11:30:33;97780;;;6.9;61
68628;BME280;55611;48.602;9.490;2023-11-22T11:32:33;97790;;;6.9;61
68628;BME280;55611;48.602;9.490;2023-11-22T11:35:04;97780;;;6.9;61
68628;BME280;55611;48.602;9.490;2023-11-22T11:37:34;97770;;;7;61
68628;BME280;55611;48.602;9.490;2023-11-22T11:40:24;97770;;;7;61
68628;BME280;55611;48.602;9.490;2023-11-22T11:42:35;97770;;;7;61
68628;BME280;55611;48.602;9.490;2023-11-22T11:45:06;97770;;;7;61
68628;BME280;55611;48.602;9.490;2023-11-22T11:47:36;97770;;;6.9;61
68628;BME280;55611;48.602;9.490;2023-11-22T11:50:07;97780;;;6.9;61
68628;BME280;55611;48.602;9.490;2023-11-22T11:52:38;97790;;;7;61
68628;BME280;55611;48.602;9.490;2023-11-22T11:55:08;97800;;;6.9;61
68628;BME280;55611;48.602;9.490;2023-11-22T11:57:38;97810;;;6.7;61
68628;BME280;55611;48.602;9.490;2023-11-22T12:00:09;97810;;;6.7;61
68628;BME280;55611;48.602;9.490;2023-11-22T12:02:40;97810;;;6.5;61.5
68628;BME280;55611;48.602;9.490;2023-11-22T12:05:10;97810;;;6.6;61.5
68628;BME280;55611;48.602;9.490;2023-11-22T12:07:52;97810;;;6.6;61.5
68628;BME280;55611;48.602;9.490;2023-11-22T12:10:11;97820;;;6.5;61.5
68628;BME280;55611;48.602;9.490;2023-11-22T12:12:42;97830;;;6.5;61.5
68628;BME280;55611;48.602;9.490;2023-11-22T12:15:12;97840;;;6.5;61.5
68628;BME280;55611;48.602;9.490;2023-11-22T12:17:42;97840;;;6.5;61.5
68628;BME280;55611;48.602;9.490;2023-11-22T12:20:14;97830;;;6.5;61.5
68628;BME280;55611;48.602;9.490;2023-11-22T12:22:44;97840;;;6.7;61
68628;BME280;55611;48.602;9.490;2023-11-22T12:25:14;97850;;;6.7;61
68628;BME280;55611;48.602;9.490;2023-11-22T12:27:44;97850;;;6.7;61
68628;BME280;55611;48.602;9.490;2023-11-22T12:30:31;97850;;;6.7;61
68628;BME280;55611;48.602;9.490;2023-11-22T12:32:45;97850;;;6.7;61
68628;BME280;55611;48.602;9.490;2023-11-22T12:35:16;97860;;;6.7;61
68628;BME280;55611;48.602;9.490;2023-11-22T12:37:46;97870;;;6.7;61
68628;BME280;55611;48.602;9.490;2023-11-22T12:40:19;97870;;;6.6;61
68628;BME280;55611;48.602;9.490;2023-11-22T12:42:48;97870;;;6.7;61
68628;BME280;55611;48.602;9.490;2023-11-22T12:45:21;97870;;;6.7;61
68628;BME280;55611;48.602;9.490;2023-11-22T12:47:49;97860;;;6.8;61
68628;BME280;55611;48.602;9.490;2023-11-22T12:50:50;97860;;;6.7;61
68628;BME280;55611;48.602;9.490;2023-11-22T12:52:49;97850;;;6.8;60.5
68628;BME280;55611;48.602;9.490;2023-11-22T12:55:20;97850;;;6.9;60.5
68628;BME280;55611;48.602;9.490;2023-11-22T12:57:58;97850;;;6.9;60.5
68628;BME280;55611;48.602;9.490;2023-11-22T13:00:21;97850;;;6.8;61
68628;BME280;55611;48.602;9.490;2023-11-22T13:02:51;97850;;;6.7;61
68628;BME280;55611;48.602;9.490;2023-11-22T13:05:22;97840;;;6.7;61
68628;BME280;55611;48.602;9.490;2023-11-22T13:07:52;97840;;;6.8;61
68628;BME280;55611;48.602;9.490;2023-11-22T13:10:23;97840;;;6.7;61
68628;BME280;55611;48.602;9.490;2023-11-22T13:12:54;97840;;;6.6;61
68628;BME280;55611;48.602;9.490;2023-11-22T13:15:24;97850;;;6.7;61
68628;BME280;55611;48.602;9.490;2023-11-22T13:17:55;97850;;;6.8;60.5
68628;BME280;55611;48.602;9.490;2023-11-22T13:20:25;97850;;;6.8;61
68628;BME280;55611;48.602;9.490;2023-11-22T13:22:56;97850;;;6.8;61
68628;BME280;55611;48.602;9.490;2023-11-22T13:25:26;97850;;;6.9;60.5
68628;BME280;55611;48.602;9.490;2023-11-22T13:27:57;97850;;;7;60.5
68628;BME280;55611;48.602;9.490;2023-11-22T13:30:27;97870;;;7;61
68628;BME280;55611;48.602;9.490;2023-11-22T13:32:58;97880;;;6.8;61
68628;BME280;55611;48.602;9.490;2023-11-22T13:35:28;97880;;;6.9;61
68628;BME280;55611;48.602;9.490;2023-11-22T13:37:59;97890;;;6.6;61
68628;BME280;55611;48.602;9.490;2023-11-22T13:40:29;97880;;;6.5;61
68628;BME280;55611;48.602;9.490;2023-11-22T13:43:00;97890;;;6.6;61
68628;BME280;55611;48.602;9.490;2023-11-22T13:45:30;97890;;;6.6;61
68628;BME280;55611;48.602;9.490;2023-11-22T13:48:01;97870;;;6.6;61
68628;BME280;55611;48.602;9.490;2023-11-22T13:50:31;97870;;;6.7;61
68628;BME280;55611;48.602;9.490;2023-11-22T13:53:02;97860;;;6.8;61
68628;BME280;55611;48.602;9.490;2023-11-22T13:55:32;97860;;;6.8;61
68628;BME280;55611;48.602;9.490;2023-11-22T13:58:03;97860;;;6.8;60.5
68628;BME280;55611;48.602;9.490;2023-11-22T14:00:33;97850;;;6.8;60.5
68628;BME280;55611;48.602;9.490;2023-11-22T14:03:04;97850;;;6.7;61
68628;BME280;55611;48.602;9.490;2023-11-22T14:05:35;97850;;;6.5;61
68628;BME280;55611;48.602;9.490;2023-11-22T14:08:05;97860;;;6.5;61
68628;BME280;55611;48.602;9.490;2023-11-22T14:10:35;97860;;;6.6;61
68628;BME280;55611;48.602;9.490;2023-11-22T14:13:06;97850;;;6.6;61
68628;BME280;55611;48.602;9.490;2023-11-22T14:15:36;97850;;;6.6;61
68628;BME280;55611;48.602;9.490;2023-11-22T14:18:07;97850;;;6.7;61
68628;BME280;55611;48.602;9.490;2023-11-22T14:20:37;97860;;;6.7;61
68628;BME280;55611;48.602;9.490;2023-11-22T14:23:08;97860;;;6.8;61
68628;BME280;55611;48.602;9.490;2023-11-22T14:25:38;97860;;;6.8;60.5
68628;BME280;55611;48.602;9.490;2023-11-22T14:28:09;97880;;;6.6;61
68628;BME280;55611;48.602;9.490;2023-11-22T14:30:39;97890;;;6.6;61
68628;BME280;55611;48.602;9.490;2023-11-22T14:33:10;97900;;;6.7;61
68628;BME280;55611;48.602;9.490;2023-11-22T14:35:41;97920;;;6.7;61
68628;BME280;55611;48.602;9.490;2023-11-22T14:38:11;97920;;;6.8;61
68628;BME280;55611;48.602;9.490;2023-11-22T14:40:42;97930;;;6.8;61
68628;BME280;55611;48.602;9.490;2023-11-22T14:43:12;97920;;;6.8;60.5